sensor_id;sensor_type;location;lat;lon;timestamp;pressure;altitude;pressure_sealevel;temperature;humidity
58668;BME280;59852;43.086;25.634;2023-04-28T00:00:51;99117.06;;;8.28;76.98
58668;BME280;59852;43.086;25.634;2023-04-28T00:03:18;99114.22;;;8.01;78.24
58668;BME280;59852;43.086;25.634;2023-04-28T00:05:44;99107.81;;;8.22;78.64
58668;BME280;59852;43.086;25.634;2023-04-28T00:08:10;99124.38;;;8.05;79.59
58668;BME280;59852;43.086;25.634;2023-04-28T00:10:36;99129.59;;;8.05;78.70
58668;BME280;59852;43.086;25.634;2023-04-28T00:13:01;99125.72;;;8.13;78.86
58668;BME280;59852;43.086;25.634;2023-04-28T00:15:26;99133.81;;;8.08;78.33
58668;BME280;59852;43.086;25.634;2023-04-28T00:17:52;99132.19;;;8.05;77.86
58668;BME280;59852;43.086;25.634;2023-04-28T00:20:18;99136.31;;;8.10;77.45
58668;BME280;59852;43.086;25.634;2023-04-28T00:22:43;99140.19;;;8.02;76.96
58668;BME280;59852;43.086;25.634;2023-04-28T00:25:09;99147.34;;;7.99;76.95
58668;BME280;59852;43.086;25.634;2023-04-28T00:27:34;99144.88;;;7.96;74.68
58668;BME280;59852;43.086;25.634;2023-04-28T00:30:00;99148.75;;;8.20;76.20
58668;BME280;59852;43.086;25.634;2023-04-28T00:32:25;99148.66;;;8.06;78.30
58668;BME280;59852;43.086;25.634;2023-04-28T00:34:51;99156.66;;;8.03;77.54
58668;BME280;59852;43.086;25.634;2023-04-28T00:37:17;99157.16;;;8.10;79.39
58668;BME280;59852;43.086;25.634;2023-04-28T00:39:42;99157.06;;;8.11;79.53
58668;BME280;59852;43.086;25.634;2023-04-28T00:42:11;99159.03;;;8.08;78.71
58668;BME280;59852;43.086;25.634;2023-04-28T00:44:36;99161.44;;;8.11;78.17
58668;BME280;59852;43.086;25.634;2023-04-28T00:47:02;99156.06;;;8.14;73.82
58668;BME280;59852;43.086;25.634;2023-04-28T00:49:27;99170.19;;;8.10;75.39
58668;BME280;59852;43.086;25.634;2023-04-28T00:51:52;99165.47;;;8.32;74.41
58668;BME280;59852;43.086;25.634;2023-04-28T00:54:18;99163.72;;;8.17;73.16
58668;BME280;59852;43.086;25.634;2023-04-28T00:56:43;99167.44;;;8.28;74.72
58668;BME280;59852;43.086;25.634;2023-04-28T00:59:09;99166.59;;;8.28;74.23
58668;BME280;59852;43.086;25.634;2023-04-28T01:01:34;99169.59;;;8.20;75.49
58668;BME280;59852;43.086;25.634;2023-04-28T01:04:00;99180.94;;;8.03;77.79
58668;BME280;59852;43.086;25.634;2023-04-28T01:06:26;99173.81;;;8.23;77.85
58668;BME280;59852;43.086;25.634;2023-04-28T01:08:52;99174.91;;;8.34;77.16
58668;BME280;59852;43.086;25.634;2023-04-28T01:11:18;99186.38;;;8.48;77.49
58668;BME280;59852;43.086;25.634;2023-04-28T01:13:43;99180.69;;;8.08;77.81
58668;BME280;59852;43.086;25.634;2023-04-28T01:16:09;99184.56;;;8.01;78.87
58668;BME280;59852;43.086;25.634;2023-04-28T01:18:35;99187.94;;;8.19;76.68
58668;BME280;59852;43.086;25.634;2023-04-28T01:21:00;99178.31;;;8.37;76.97
58668;BME280;59852;43.086;25.634;2023-04-28T01:23:28;99183.34;;;8.40;75.64
58668;BME280;59852;43.086;25.634;2023-04-28T01:25:53;99182.03;;;8.31;75.15
58668;BME280;59852;43.086;25.634;2023-04-28T01:28:18;99186.50;;;8.29;75.18
58668;BME280;59852;43.086;25.634;2023-04-28T01:30:43;99182.53;;;8.22;73.76
58668;BME280;59852;43.086;25.634;2023-04-28T01:33:09;99190.88;;;8.28;72.72
58668;BME280;59852;43.086;25.634;2023-04-28T01:35:34;99195.34;;;8.26;72.85
58668;BME280;59852;43.086;25.634;2023-04-28T01:38:00;99190.97;;;8.27;73.39
58668;BME280;59852;43.086;25.634;2023-04-28T01:40:26;99193.56;;;8.27;74.30
58668;BME280;59852;43.086;25.634;2023-04-28T01:42:51;99185.47;;;8.16;72.71
58668;BME280;59852;43.086;25.634;2023-04-28T01:45:16;99195.00;;;8.17;70.18
58668;BME280;59852;43.086;25.634;2023-04-28T01:47:42;99201.88;;;8.18;69.49
58668;BME280;59852;43.086;25.634;2023-04-28T01:50:07;99196.41;;;8.22;68.73
58668;BME280;59852;43.086;25.634;2023-04-28T01:52:32;99195.66;;;8.20;68.74
58668;BME280;59852;43.086;25.634;2023-04-28T01:54:58;99205.44;;;8.17;68.98
58668;BME280;59852;43.086;25.634;2023-04-28T01:57:23;99205.31;;;8.02;67.89
58668;BME280;59852;43.086;25.634;2023-04-28T01:59:48;99202.31;;;8.26;67.64
58668;BME280;59852;43.086;25.634;2023-04-28T02:02:14;99208.66;;;8.04;68.80
58668;BME280;59852;43.086;25.634;2023-04-28T02:04:39;99205.00;;;8.09;68.47
58668;BME280;59852;43.086;25.634;2023-04-28T02:07:05;99208.66;;;8.04;68.38
58668;BME280;59852;43.086;25.634;2023-04-28T02:09:31;99207.94;;;8.18;68.33
58668;BME280;59852;43.086;25.634;2023-04-28T02:11:56;99210.13;;;8.26;67.58
58668;BME280;59852;43.086;25.634;2023-04-28T02:14:23;99212.88;;;8.23;67.29
58668;BME280;59852;43.086;25.634;2023-04-28T02:16:49;99218.09;;;8.23;67.88
58668;BME280;59852;43.086;25.634;2023-04-28T02:19:14;99219.88;;;8.22;66.95
58668;BME280;59852;43.086;25.634;2023-04-28T02:21:40;99216.69;;;8.33;66.63
58668;BME280;59852;43.086;25.634;2023-04-28T02:24:06;99221.94;;;8.16;66.07
58668;BME280;59852;43.086;25.634;2023-04-28T02:26:32;99212.91;;;8.07;64.88
58668;BME280;59852;43.086;25.634;2023-04-28T02:28:58;99221.88;;;8.01;65.47
58668;BME280;59852;43.086;25.634;2023-04-28T02:31:23;99224.06;;;8.25;65.50
58668;BME280;59852;43.086;25.634;2023-04-28T02:33:48;99226.34;;;8.31;65.32
58668;BME280;59852;43.086;25.634;2023-04-28T02:36:13;99223.16;;;8.26;66.22
58668;BME280;59852;43.086;25.634;2023-04-28T02:38:39;99230.63;;;8.32;66.62
58668;BME280;59852;43.086;25.634;2023-04-28T02:41:06;99235.75;;;8.18;67.34
58668;BME280;59852;43.086;25.634;2023-04-28T02:43:33;99230.53;;;8.02;66.80
58668;BME280;59852;43.086;25.634;2023-04-28T02:45:58;99226.66;;;8.09;67.59
58668;BME280;59852;43.086;25.634;2023-04-28T02:48:24;99227.75;;;8.05;66.66
58668;BME280;59852;43.086;25.634;2023-04-28T02:50:50;99238.47;;;8.16;66.54
58668;BME280;59852;43.086;25.634;2023-04-28T02:53:17;99241.72;;;8.20;67.13
58668;BME280;59852;43.086;25.634;2023-04-28T02:55:42;99239.22;;;8.18;67.48
58668;BME280;59852;43.086;25.634;2023-04-28T02:58:07;99249.94;;;8.12;67.67
58668;BME280;59852;43.086;25.634;2023-04-28T03:00:33;99254.34;;;7.94;69.35
58668;BME280;59852;43.086;25.634;2023-04-28T03:02:58;99244.94;;;7.92;69.20
58668;BME280;59852;43.086;25.634;2023-04-28T03:05:23;99251.81;;;7.77;72.65
58668;BME280;59852;43.086;25.634;2023-04-28T03:07:49;99253.63;;;7.75;74.81
58668;BME280;59852;43.086;25.634;2023-04-28T03:10:14;99256.13;;;7.94;73.35
58668;BME280;59852;43.086;25.634;2023-04-28T03:12:39;99255.72;;;8.01;73.66
58668;BME280;59852;43.086;25.634;2023-04-28T03:15:05;99256.59;;;7.85;74.67
58668;BME280;59852;43.086;25.634;2023-04-28T03:17:32;99254.16;;;7.82;74.39
58668;BME280;59852;43.086;25.634;2023-04-28T03:19:58;99255.50;;;7.56;74.04
58668;BME280;59852;43.086;25.634;2023-04-28T03:22:23;99262.41;;;7.39;74.03
58668;BME280;59852;43.086;25.634;2023-04-28T03:24:48;99264.22;;;7.37;73.48
58668;BME280;59852;43.086;25.634;2023-04-28T03:27:14;99270.97;;;7.41;75.71
58668;BME280;59852;43.086;25.634;2023-04-28T03:29:39;99273.94;;;7.68;76.23
58668;BME280;59852;43.086;25.634;2023-04-28T03:32:05;99280.75;;;7.71;79.60
58668;BME280;59852;43.086;25.634;2023-04-28T03:34:30;99285.13;;;7.70;80.95
58668;BME280;59852;43.086;25.634;2023-04-28T03:36:56;99280.94;;;8.01;80.03
58668;BME280;59852;43.086;25.634;2023-04-28T03:39:21;99286.31;;;7.98;79.41
58668;BME280;59852;43.086;25.634;2023-04-28T03:41:46;99288.22;;;7.94;79.99
58668;BME280;59852;43.086;25.634;2023-04-28T03:44:12;99292.09;;;7.70;79.52
58668;BME280;59852;43.086;25.634;2023-04-28T03:46:37;99305.66;;;6.88;83.12
58668;BME280;59852;43.086;25.634;2023-04-28T03:49:02;99302.66;;;7.50;81.86
58668;BME280;59852;43.086;25.634;2023-04-28T03:51:28;99309.69;;;7.82;80.37
58668;BME280;59852;43.086;25.634;2023-04-28T03:53:54;99309.84;;;7.79;79.96
58668;BME280;59852;43.086;25.634;2023-04-28T03:56:19;99312.38;;;7.63;81.32
58668;BME280;59852;43.086;25.634;2023-04-28T03:58:45;99320.41;;;7.76;81.39
58668;BME280;59852;43.086;25.634;2023-04-28T04:01:10;99320.41;;;7.93;80.74
58668;BME280;59852;43.086;25.634;2023-04-28T04:03:36;99321.16;;;7.95;79.73
58668;BME280;59852;43.086;25.634;2023-04-28T04:06:02;99322.50;;;7.69;81.22
58668;BME280;59852;43.086;25.634;2023-04-28T04:08:27;99320.72;;;7.87;81.17
58668;BME280;59852;43.086;25.634;2023-04-28T04:10:52;99323.00;;;7.93;80.75
58668;BME280;59852;43.086;25.634;2023-04-28T04:13:19;99320.25;;;7.96;79.76
58668;BME280;59852;43.086;25.634;2023-04-28T04:15:45;99323.63;;;7.98;79.15
58668;BME280;59852;43.086;25.634;2023-04-28T04:18:10;99330.34;;;8.02;79.31
58668;BME280;59852;43.086;25.634;2023-04-28T04:20:35;99329.13;;;7.92;79.45
58668;BME280;59852;43.086;25.634;2023-04-28T04:23:01;99329.13;;;8.10;78.57
58668;BME280;59852;43.086;25.634;2023-04-28T04:25:27;99331.81;;;8.08;78.51
58668;BME280;59852;43.086;25.634;2023-04-28T04:27:53;99334.78;;;8.18;79.45
58668;BME280;59852;43.086;25.634;2023-04-28T04:30:18;99339.16;;;8.00;79.82
58668;BME280;59852;43.086;25.634;2023-04-28T04:32:43;99339.47;;;7.94;81.96
58668;BME280;59852;43.086;25.634;2023-04-28T04:35:09;99334.19;;;7.95;82.02
58668;BME280;59852;43.086;25.634;2023-04-28T04:37:34;99339.38;;;7.95;82.29
58668;BME280;59852;43.086;25.634;2023-04-28T04:39:59;99345.53;;;7.94;82.47
58668;BME280;59852;43.086;25.634;2023-04-28T04:42:25;99341.84;;;7.98;82.55
58668;BME280;59852;43.086;25.634;2023-04-28T04:44:50;99339.09;;;8.01;82.95
58668;BME280;59852;43.086;25.634;2023-04-28T04:47:16;99337.25;;;8.03;83.21
58668;BME280;59852;43.086;25.634;2023-04-28T04:49:41;99347.16;;;7.80;83.34
58668;BME280;59852;43.086;25.634;2023-04-28T04:52:06;99347.84;;;7.83;83.05
58668;BME280;59852;43.086;25.634;2023-04-28T04:54:32;99352.03;;;7.86;79.82
58668;BME280;59852;43.086;25.634;2023-04-28T04:56:57;99348.16;;;7.77;79.54
58668;BME280;59852;43.086;25.634;2023-04-28T04:59:23;99359.03;;;7.68;79.78
58668;BME280;59852;43.086;25.634;2023-04-28T05:01:48;99361.69;;;7.49;76.78
58668;BME280;59852;43.086;25.634;2023-04-28T05:04:13;99363.06;;;7.56;76.43
58668;BME280;59852;43.086;25.634;2023-04-28T05:06:39;99365.81;;;7.53;76.41
58668;BME280;59852;43.086;25.634;2023-04-28T05:09:04;99365.53;;;7.23;76.45
58668;BME280;59852;43.086;25.634;2023-04-28T05:11:30;99365.38;;;7.62;73.54
58668;BME280;59852;43.086;25.634;2023-04-28T05:13:55;99375.91;;;7.42;75.86
58668;BME280;59852;43.086;25.634;2023-04-28T05:16:20;99371.88;;;7.54;74.93
58668;BME280;59852;43.086;25.634;2023-04-28T05:18:46;99369.88;;;7.93;74.72
58668;BME280;59852;43.086;25.634;2023-04-28T05:21:11;99384.91;;;7.35;73.59
58668;BME280;59852;43.086;25.634;2023-04-28T05:23:36;99380.44;;;7.56;73.80
58668;BME280;59852;43.086;25.634;2023-04-28T05:26:02;99374.72;;;8.01;77.23
58668;BME280;59852;43.086;25.634;2023-04-28T05:28:28;99382.91;;;8.11;78.04
58668;BME280;59852;43.086;25.634;2023-04-28T05:30:54;99378.44;;;8.30;77.45
58668;BME280;59852;43.086;25.634;2023-04-28T05:33:19;99380.69;;;8.38;76.11
58668;BME280;59852;43.086;25.634;2023-04-28T05:35:44;99380.19;;;8.29;73.92
58668;BME280;59852;43.086;25.634;2023-04-28T05:38:10;99384.47;;;7.97;75.96
58668;BME280;59852;43.086;25.634;2023-04-28T05:40:35;99391.44;;;7.80;75.95
58668;BME280;59852;43.086;25.634;2023-04-28T05:43:01;99389.50;;;7.83;74.03
58668;BME280;59852;43.086;25.634;2023-04-28T05:45:26;99393.44;;;8.25;73.64
58668;BME280;59852;43.086;25.634;2023-04-28T05:47:51;99392.91;;;8.53;71.64
58668;BME280;59852;43.086;25.634;2023-04-28T05:50:17;99399.84;;;8.70;71.07
58668;BME280;59852;43.086;25.634;2023-04-28T05:52:42;99393.16;;;8.64;67.27
58668;BME280;59852;43.086;25.634;2023-04-28T05:55:07;99394.22;;;8.44;67.02
58668;BME280;59852;43.086;25.634;2023-04-28T05:57:33;99394.09;;;8.63;67.51
58668;BME280;59852;43.086;25.634;2023-04-28T05:59:59;99395.63;;;8.67;65.55
58668;BME280;59852;43.086;25.634;2023-04-28T06:02:24;99399.34;;;8.79;65.79
58668;BME280;59852;43.086;25.634;2023-04-28T06:04:50;99398.34;;;8.66;63.96
58668;BME280;59852;43.086;25.634;2023-04-28T06:07:15;99402.41;;;8.87;65.74
58668;BME280;59852;43.086;25.634;2023-04-28T06:09:40;99398.03;;;9.19;62.38
58668;BME280;59852;43.086;25.634;2023-04-28T06:12:06;99400.59;;;9.51;64.01
58668;BME280;59852;43.086;25.634;2023-04-28T06:14:31;99402.69;;;9.60;61.36
58668;BME280;59852;43.086;25.634;2023-04-28T06:16:57;99405.59;;;9.39;64.06
58668;BME280;59852;43.086;25.634;2023-04-28T06:19:22;99401.22;;;9.56;62.08
58668;BME280;59852;43.086;25.634;2023-04-28T06:21:47;99406.94;;;9.46;60.55
58668;BME280;59852;43.086;25.634;2023-04-28T06:24:15;99408.44;;;9.66;60.84
58668;BME280;59852;43.086;25.634;2023-04-28T06:26:41;99408.63;;;9.93;58.12
58668;BME280;59852;43.086;25.634;2023-04-28T06:29:06;99411.66;;;9.86;58.66
58668;BME280;59852;43.086;25.634;2023-04-28T06:31:31;99414.19;;;9.87;57.50
58668;BME280;59852;43.086;25.634;2023-04-28T06:33:57;99406.56;;;9.98;55.14
58668;BME280;59852;43.086;25.634;2023-04-28T06:36:22;99401.84;;;10.05;54.10
58668;BME280;59852;43.086;25.634;2023-04-28T06:38:47;99400.22;;;9.72;53.88
58668;BME280;59852;43.086;25.634;2023-04-28T06:41:13;99411.53;;;10.03;56.95
58668;BME280;59852;43.086;25.634;2023-04-28T06:43:38;99400.72;;;9.79;55.30
58668;BME280;59852;43.086;25.634;2023-04-28T06:46:03;99402.97;;;9.55;54.20
58668;BME280;59852;43.086;25.634;2023-04-28T06:48:29;99396.72;;;9.58;55.94
58668;BME280;59852;43.086;25.634;2023-04-28T06:50:54;99403.84;;;9.86;53.83
58668;BME280;59852;43.086;25.634;2023-04-28T06:53:20;99400.63;;;10.11;54.05
58668;BME280;59852;43.086;25.634;2023-04-28T06:55:45;99405.13;;;9.93;53.29
58668;BME280;59852;43.086;25.634;2023-04-28T06:58:11;99396.50;;;10.37;53.91
58668;BME280;59852;43.086;25.634;2023-04-28T07:00:36;99399.25;;;10.19;55.56
58668;BME280;59852;43.086;25.634;2023-04-28T07:03:01;99402.59;;;10.07;54.38
58668;BME280;59852;43.086;25.634;2023-04-28T07:05:27;99395.00;;;10.02;52.26
58668;BME280;59852;43.086;25.634;2023-04-28T07:07:53;99398.72;;;9.98;52.56
58668;BME280;59852;43.086;25.634;2023-04-28T07:10:18;99392.34;;;10.18;49.83
58668;BME280;59852;43.086;25.634;2023-04-28T07:12:43;99393.25;;;10.03;51.42
58668;BME280;59852;43.086;25.634;2023-04-28T07:15:09;99395.38;;;10.41;54.53
58668;BME280;59852;43.086;25.634;2023-04-28T07:17:34;99404.22;;;11.09;52.82
58668;BME280;59852;43.086;25.634;2023-04-28T07:20:00;99399.06;;;11.08;52.59
58668;BME280;59852;43.086;25.634;2023-04-28T07:22:25;99393.72;;;10.82;50.65
58668;BME280;59852;43.086;25.634;2023-04-28T07:24:51;99391.25;;;11.35;50.00
58668;BME280;59852;43.086;25.634;2023-04-28T07:27:16;99388.66;;;11.20;49.32
58668;BME280;59852;43.086;25.634;2023-04-28T07:29:41;99393.81;;;11.22;48.18
58668;BME280;59852;43.086;25.634;2023-04-28T07:32:07;99385.91;;;11.90;50.66
58668;BME280;59852;43.086;25.634;2023-04-28T07:34:34;99385.38;;;11.98;46.94
58668;BME280;59852;43.086;25.634;2023-04-28T07:36:59;99382.50;;;11.48;46.70
58668;BME280;59852;43.086;25.634;2023-04-28T07:39:25;99387.22;;;11.70;47.06
58668;BME280;59852;43.086;25.634;2023-04-28T07:41:50;99387.00;;;11.73;46.11
58668;BME280;59852;43.086;25.634;2023-04-28T07:44:16;99378.50;;;12.35;46.55
58668;BME280;59852;43.086;25.634;2023-04-28T07:46:41;99381.13;;;12.35;46.29
58668;BME280;59852;43.086;25.634;2023-04-28T07:49:07;99375.84;;;11.97;45.85
58668;BME280;59852;43.086;25.634;2023-04-28T07:51:33;99377.16;;;12.42;44.88
58668;BME280;59852;43.086;25.634;2023-04-28T07:53:59;99376.47;;;11.88;44.85
58668;BME280;59852;43.086;25.634;2023-04-28T07:56:24;99379.38;;;10.88;45.49
58668;BME280;59852;43.086;25.634;2023-04-28T07:58:50;99383.00;;;11.00;48.91
58668;BME280;59852;43.086;25.634;2023-04-28T08:01:16;99374.47;;;10.55;48.35
58668;BME280;59852;43.086;25.634;2023-04-28T08:03:41;99377.78;;;11.00;49.24
58668;BME280;59852;43.086;25.634;2023-04-28T08:06:07;99379.06;;;11.21;49.11
58668;BME280;59852;43.086;25.634;2023-04-28T08:08:32;99371.81;;;10.98;51.06
58668;BME280;59852;43.086;25.634;2023-04-28T08:10:59;99382.28;;;10.98;48.27
58668;BME280;59852;43.086;25.634;2023-04-28T08:13:24;99377.91;;;10.84;47.39
58668;BME280;59852;43.086;25.634;2023-04-28T08:15:50;99375.28;;;10.84;48.38
58668;BME280;59852;43.086;25.634;2023-04-28T08:18:15;99374.19;;;10.45;47.75
58668;BME280;59852;43.086;25.634;2023-04-28T08:20:40;99369.78;;;10.60;49.32
58668;BME280;59852;43.086;25.634;2023-04-28T08:23:06;99368.47;;;10.67;52.38
58668;BME280;59852;43.086;25.634;2023-04-28T08:25:32;99370.78;;;10.86;51.08
58668;BME280;59852;43.086;25.634;2023-04-28T08:27:57;99370.19;;;10.54;50.11
58668;BME280;59852;43.086;25.634;2023-04-28T08:30:23;99368.84;;;10.47;50.54
58668;BME280;59852;43.086;25.634;2023-04-28T08:32:48;99368.31;;;10.56;47.82
58668;BME280;59852;43.086;25.634;2023-04-28T08:35:13;99361.53;;;11.48;48.98
58668;BME280;59852;43.086;25.634;2023-04-28T08:37:40;99358.78;;;12.17;44.92
58668;BME280;59852;43.086;25.634;2023-04-28T08:40:05;99349.22;;;12.28;45.18
58668;BME280;59852;43.086;25.634;2023-04-28T08:42:33;99351.47;;;11.42;43.58
58668;BME280;59852;43.086;25.634;2023-04-28T08:45:00;99347.88;;;12.23;45.21
58668;BME280;59852;43.086;25.634;2023-04-28T08:47:33;99349.38;;;12.89;42.38
58668;BME280;59852;43.086;25.634;2023-04-28T08:50:06;99344.19;;;12.00;41.19
58668;BME280;59852;43.086;25.634;2023-04-28T08:52:32;99344.00;;;11.76;42.45
58668;BME280;59852;43.086;25.634;2023-04-28T08:54:59;99345.53;;;11.93;44.00
58668;BME280;59852;43.086;25.634;2023-04-28T08:57:29;99341.13;;;11.81;42.30
58668;BME280;59852;43.086;25.634;2023-04-28T08:59:59;99338.41;;;11.55;46.75
58668;BME280;59852;43.086;25.634;2023-04-28T09:02:24;99338.81;;;10.95;46.96
58668;BME280;59852;43.086;25.634;2023-04-28T09:04:50;99340.22;;;11.28;46.70
58668;BME280;59852;43.086;25.634;2023-04-28T09:07:15;99337.69;;;11.53;48.50
58668;BME280;59852;43.086;25.634;2023-04-28T09:09:41;99332.84;;;11.20;46.18
58668;BME280;59852;43.086;25.634;2023-04-28T09:12:06;99328.88;;;11.81;46.90
58668;BME280;59852;43.086;25.634;2023-04-28T09:14:33;99327.72;;;11.98;46.90
58668;BME280;59852;43.086;25.634;2023-04-28T09:16:58;99338.22;;;12.49;46.29
58668;BME280;59852;43.086;25.634;2023-04-28T09:19:33;99332.66;;;12.02;44.70
58668;BME280;59852;43.086;25.634;2023-04-28T09:21:58;99333.72;;;11.60;44.21
58668;BME280;59852;43.086;25.634;2023-04-28T09:24:28;99332.25;;;11.29;44.65
58668;BME280;59852;43.086;25.634;2023-04-28T09:26:54;99325.00;;;11.60;46.12
58668;BME280;59852;43.086;25.634;2023-04-28T09:29:19;99328.28;;;11.36;47.06
58668;BME280;59852;43.086;25.634;2023-04-28T09:31:45;99332.44;;;11.26;45.03
58668;BME280;59852;43.086;25.634;2023-04-28T09:34:10;99326.34;;;12.43;45.43
58668;BME280;59852;43.086;25.634;2023-04-28T09:36:36;99320.81;;;13.21;43.67
58668;BME280;59852;43.086;25.634;2023-04-28T09:39:02;99321.03;;;13.05;41.24
58668;BME280;59852;43.086;25.634;2023-04-28T09:41:36;99314.13;;;11.66;42.86
58668;BME280;59852;43.086;25.634;2023-04-28T09:46:35;99307.38;;;12.76;43.54
58668;BME280;59852;43.086;25.634;2023-04-28T09:49:00;99300.13;;;12.18;43.11
58668;BME280;59852;43.086;25.634;2023-04-28T09:51:26;99311.88;;;12.25;45.08
58668;BME280;59852;43.086;25.634;2023-04-28T09:53:52;99299.25;;;12.55;42.83
58668;BME280;59852;43.086;25.634;2023-04-28T09:56:18;99292.78;;;11.97;43.47
58668;BME280;59852;43.086;25.634;2023-04-28T09:58:45;99299.59;;;11.87;43.41
58668;BME280;59852;43.086;25.634;2023-04-28T10:01:12;99291.00;;;12.36;42.39
58668;BME280;59852;43.086;25.634;2023-04-28T10:03:38;99285.84;;;13.56;42.89
58668;BME280;59852;43.086;25.634;2023-04-28T10:06:05;99286.09;;;13.64;39.81
58668;BME280;59852;43.086;25.634;2023-04-28T10:08:31;99285.44;;;13.84;42.57
58668;BME280;59852;43.086;25.634;2023-04-28T10:10:57;99288.94;;;13.02;41.66
58668;BME280;59852;43.086;25.634;2023-04-28T10:13:22;99287.50;;;12.48;41.64
58668;BME280;59852;43.086;25.634;2023-04-28T10:15:48;99279.28;;;13.61;42.09
58668;BME280;59852;43.086;25.634;2023-04-28T10:18:14;99286.78;;;13.07;42.80
58668;BME280;59852;43.086;25.634;2023-04-28T10:20:44;99296.78;;;12.41;43.66
58668;BME280;59852;43.086;25.634;2023-04-28T10:25:41;99282.19;;;13.81;42.95
58668;BME280;59852;43.086;25.634;2023-04-28T10:28:07;99279.53;;;13.58;42.60
58668;BME280;59852;43.086;25.634;2023-04-28T10:30:33;99279.75;;;13.20;43.25
58668;BME280;59852;43.086;25.634;2023-04-28T10:40:34;99264.03;;;13.77;39.54
58668;BME280;59852;43.086;25.634;2023-04-28T10:42:59;99260.59;;;14.11;38.51
58668;BME280;59852;43.086;25.634;2023-04-28T10:48:09;99257.38;;;13.38;40.47
58668;BME280;59852;43.086;25.634;2023-04-28T10:50:34;99259.94;;;13.73;39.60
58668;BME280;59852;43.086;25.634;2023-04-28T10:53:02;99259.97;;;13.85;39.87
58668;BME280;59852;43.086;25.634;2023-04-28T10:55:34;99252.91;;;13.28;39.12
58668;BME280;59852;43.086;25.634;2023-04-28T11:00:44;99252.59;;;13.90;38.59
58668;BME280;59852;43.086;25.634;2023-04-28T11:08:40;99245.69;;;13.54;40.88
58668;BME280;59852;43.086;25.634;2023-04-28T11:13:34;99249.59;;;13.94;40.90
58668;BME280;59852;43.086;25.634;2023-04-28T11:16:02;99241.09;;;13.80;39.45
58668;BME280;59852;43.086;25.634;2023-04-28T11:18:28;99248.19;;;13.55;40.52
58668;BME280;59852;43.086;25.634;2023-04-28T11:20:55;99239.44;;;14.01;41.01
58668;BME280;59852;43.086;25.634;2023-04-28T11:23:22;99248.59;;;13.73;40.16
58668;BME280;59852;43.086;25.634;2023-04-28T11:25:55;99245.66;;;13.42;43.11
58668;BME280;59852;43.086;25.634;2023-04-28T11:28:20;99239.09;;;13.13;42.90
58668;BME280;59852;43.086;25.634;2023-04-28T11:30:46;99252.13;;;12.90;43.05
58668;BME280;59852;43.086;25.634;2023-04-28T11:33:11;99245.97;;;13.27;42.01
58668;BME280;59852;43.086;25.634;2023-04-28T11:35:40;99245.63;;;12.83;41.65
58668;BME280;59852;43.086;25.634;2023-04-28T11:38:06;99245.56;;;12.96;42.68
58668;BME280;59852;43.086;25.634;2023-04-28T11:40:31;99237.53;;;13.45;43.27
58668;BME280;59852;43.086;25.634;2023-04-28T11:42:56;99239.31;;;13.80;41.53
58668;BME280;59852;43.086;25.634;2023-04-28T11:45:23;99238.16;;;13.49;42.38
58668;BME280;59852;43.086;25.634;2023-04-28T11:47:49;99237.75;;;12.83;43.98
58668;BME280;59852;43.086;25.634;2023-04-28T11:50:14;99238.03;;;12.91;43.93
58668;BME280;59852;43.086;25.634;2023-04-28T11:52:49;99243.88;;;13.43;43.68
58668;BME280;59852;43.086;25.634;2023-04-28T11:55:17;99233.22;;;13.09;44.07
58668;BME280;59852;43.086;25.634;2023-04-28T11:57:43;99232.66;;;13.41;43.58
58668;BME280;59852;43.086;25.634;2023-04-28T12:00:14;99227.81;;;13.59;42.89
58668;BME280;59852;43.086;25.634;2023-04-28T12:02:45;99219.09;;;13.92;41.89
58668;BME280;59852;43.086;25.634;2023-04-28T12:05:11;99218.16;;;14.04;42.14
58668;BME280;59852;43.086;25.634;2023-04-28T12:07:43;99205.31;;;14.44;40.59
58668;BME280;59852;43.086;25.634;2023-04-28T12:10:09;99208.72;;;13.79;40.25
58668;BME280;59852;43.086;25.634;2023-04-28T12:12:34;99199.69;;;14.60;40.59
58668;BME280;59852;43.086;25.634;2023-04-28T12:15:00;99205.00;;;14.38;39.47
58668;BME280;59852;43.086;25.634;2023-04-28T12:17:27;99208.13;;;13.29;41.16
58668;BME280;59852;43.086;25.634;2023-04-28T12:19:56;99208.53;;;13.12;42.90
58668;BME280;59852;43.086;25.634;2023-04-28T12:22:22;99204.75;;;13.27;41.98
58668;BME280;59852;43.086;25.634;2023-04-28T12:25:04;99202.25;;;13.72;40.77
58668;BME280;59852;43.086;25.634;2023-04-28T12:27:31;99184.19;;;14.12;41.49
58668;BME280;59852;43.086;25.634;2023-04-28T12:29:57;99180.25;;;13.84;40.84
58668;BME280;59852;43.086;25.634;2023-04-28T12:32:38;99186.81;;;14.46;39.30
58668;BME280;59852;43.086;25.634;2023-04-28T12:35:04;99180.63;;;13.68;39.86
58668;BME280;59852;43.086;25.634;2023-04-28T12:37:30;99182.06;;;14.06;40.19
58668;BME280;59852;43.086;25.634;2023-04-28T12:39:56;99177.38;;;14.21;41.58
58668;BME280;59852;43.086;25.634;2023-04-28T12:42:21;99169.00;;;14.04;39.50
58668;BME280;59852;43.086;25.634;2023-04-28T12:44:47;99169.84;;;13.60;40.04
58668;BME280;59852;43.086;25.634;2023-04-28T12:47:12;99171.41;;;13.74;41.78
58668;BME280;59852;43.086;25.634;2023-04-28T12:49:38;99161.09;;;14.49;40.24
58668;BME280;59852;43.086;25.634;2023-04-28T12:52:04;99166.69;;;14.56;38.98
58668;BME280;59852;43.086;25.634;2023-04-28T12:54:29;99160.38;;;14.36;39.29
58668;BME280;59852;43.086;25.634;2023-04-28T12:56:55;99157.44;;;14.61;39.69
58668;BME280;59852;43.086;25.634;2023-04-28T12:59:21;99144.59;;;14.47;38.84
58668;BME280;59852;43.086;25.634;2023-04-28T13:01:46;99151.91;;;14.10;40.11
58668;BME280;59852;43.086;25.634;2023-04-28T13:04:12;99147.94;;;14.38;39.04
58668;BME280;59852;43.086;25.634;2023-04-28T13:06:37;99151.94;;;13.99;38.51
58668;BME280;59852;43.086;25.634;2023-04-28T13:09:04;99141.09;;;14.58;39.50
58668;BME280;59852;43.086;25.634;2023-04-28T13:11:30;99133.81;;;14.50;39.84
58668;BME280;59852;43.086;25.634;2023-04-28T13:13:56;99129.38;;;15.04;38.48